createdAt,value
2019-02-22T00:02:31.644Z,99.90
2019-02-22T00:05:01.235Z,99.90
2019-02-22T00:07:30.742Z,99.90
2019-02-22T00:10:00.382Z,99.90
2019-02-22T00:12:29.956Z,99.90
2019-02-22T00:14:59.402Z,99.90
2019-02-22T00:17:28.874Z,99.90
2019-02-22T00:19:58.402Z,99.90
2019-02-22T00:22:28.026Z,99.90
2019-02-22T00:24:57.482Z,99.90
2019-02-22T00:27:27.194Z,99.90
2019-02-22T00:29:56.653Z,99.90
2019-02-22T00:32:26.333Z,99.90
2019-02-22T00:34:55.907Z,99.90
2019-02-22T00:37:25.403Z,99.90
2019-02-22T00:39:55.014Z,99.90
2019-02-22T00:42:24.500Z,99.90
2019-02-22T00:44:54.030Z,99.90
2019-02-22T00:47:23.638Z,99.90
2019-02-22T00:49:53.201Z,99.90
2019-02-22T00:52:22.750Z,99.90
2019-02-22T00:54:52.241Z,99.90
2019-02-22T00:57:21.844Z,99.90
2019-02-22T00:59:51.306Z,99.90
2019-02-22T01:02:20.959Z,99.90
2019-02-22T01:04:50.464Z,99.90
2019-02-22T01:07:21.999Z,99.90
2019-02-22T01:09:51.295Z,99.90
2019-02-22T01:12:20.983Z,99.90
2019-02-22T01:14:50.467Z,99.90
2019-02-22T01:17:19.956Z,99.90
2019-02-22T01:19:49.425Z,99.90
2019-02-22T01:22:18.872Z,99.90
2019-02-22T01:24:48.394Z,99.90
2019-02-22T01:27:17.945Z,99.90
2019-02-22T01:29:47.448Z,99.90
2019-02-22T01:32:16.995Z,99.90
2019-02-22T01:34:46.494Z,99.90
2019-02-22T01:37:15.962Z,99.90
2019-02-22T01:39:45.439Z,99.90
2019-02-22T01:42:14.952Z,99.90
2019-02-22T01:44:44.436Z,99.90
2019-02-22T01:47:13.919Z,99.90
2019-02-22T01:49:43.530Z,99.90
2019-02-22T01:52:13.076Z,99.90
2019-02-22T01:54:42.698Z,99.90
2019-02-22T01:57:12.173Z,99.90
2019-02-22T01:59:41.724Z,99.90
2019-02-22T02:02:11.211Z,99.90
2019-02-22T02:04:40.702Z,99.90
2019-02-22T02:07:10.288Z,99.90
2019-02-22T02:09:39.776Z,99.90
2019-02-22T02:12:09.232Z,99.90
2019-02-22T02:14:38.789Z,99.90
2019-02-22T02:17:08.327Z,99.90
2019-02-22T02:19:37.883Z,99.90
2019-02-22T02:22:07.449Z,99.90
2019-02-22T02:24:36.913Z,99.90
2019-02-22T02:27:06.378Z,99.90
2019-02-22T02:29:51.295Z,99.90
2019-02-22T02:32:21.047Z,99.90
2019-02-22T02:34:50.601Z,99.90
2019-02-22T02:37:20.217Z,99.90
2019-02-22T02:39:49.851Z,99.90
2019-02-22T02:42:19.392Z,99.90
2019-02-22T02:44:48.952Z,99.90
2019-02-22T02:47:18.429Z,99.90
2019-02-22T02:49:47.963Z,99.90
2019-02-22T02:52:17.477Z,99.90
2019-02-22T02:54:48.424Z,99.90
2019-02-22T02:57:17.936Z,99.90
2019-02-22T02:59:47.395Z,99.90
2019-02-22T03:02:21.418Z,99.90
2019-02-22T03:04:50.907Z,99.90
2019-02-22T03:07:38.145Z,99.90
2019-02-22T03:10:08.419Z,99.90
2019-02-22T03:12:37.996Z,99.90
2019-02-22T03:15:08.813Z,99.90
2019-02-22T03:17:38.392Z,99.90
2019-02-22T03:20:08.135Z,99.90
2019-02-22T03:22:37.850Z,99.90
2019-02-22T03:25:07.886Z,99.90
2019-02-22T03:27:37.457Z,99.90
2019-02-22T03:30:07.558Z,99.90
2019-02-22T03:32:37.036Z,99.90
2019-02-22T03:35:06.730Z,99.90
2019-02-22T03:37:36.297Z,99.90
2019-02-22T03:40:06.628Z,99.90
2019-02-22T03:42:36.241Z,99.90
2019-02-22T03:45:05.843Z,99.90
2019-02-22T03:47:35.577Z,99.90
2019-02-22T03:50:06.309Z,99.90
2019-02-22T03:52:45.556Z,99.90
2019-02-22T03:55:15.031Z,99.90
2019-02-22T03:57:44.573Z,99.90
2019-02-22T04:00:14.213Z,99.90
2019-02-22T04:02:43.706Z,99.90
2019-02-22T04:05:13.327Z,99.90
2019-02-22T04:07:43.147Z,99.90
2019-02-22T04:10:12.639Z,99.90
2019-02-22T04:12:42.116Z,99.90
2019-02-22T04:15:11.751Z,99.90
2019-02-22T04:17:41.224Z,99.90
2019-02-22T04:20:10.882Z,99.90
2019-02-22T04:22:40.399Z,99.90
2019-02-22T04:25:09.900Z,99.90
2019-02-22T04:27:39.493Z,99.90
2019-02-22T04:30:09.425Z,99.90
2019-02-22T04:32:38.879Z,99.90
2019-02-22T04:35:08.437Z,99.90
2019-02-22T04:37:37.991Z,99.90
2019-02-22T04:40:07.464Z,99.90
2019-02-22T04:42:36.906Z,99.90
2019-02-22T04:45:06.731Z,99.90
2019-02-22T04:47:36.191Z,99.90
2019-02-22T04:50:06.417Z,99.90
2019-02-22T04:52:36.008Z,99.90
2019-02-22T04:55:05.875Z,99.90
2019-02-22T04:57:35.528Z,99.90
2019-02-22T05:00:05.362Z,99.90
2019-02-22T05:02:34.870Z,99.90
2019-02-22T05:05:05.267Z,99.90
2019-02-22T05:07:34.780Z,99.90
2019-02-22T05:10:04.856Z,99.90
2019-02-22T05:12:35.666Z,99.90
2019-02-22T05:15:12.657Z,99.90
2019-02-22T05:17:36.564Z,99.90
2019-02-22T05:20:06.132Z,99.90
2019-02-22T05:22:35.672Z,99.90
2019-02-22T05:25:06.020Z,99.90
2019-02-22T05:27:36.002Z,99.90
2019-02-22T05:30:06.277Z,99.90
2019-02-22T05:32:35.864Z,99.90
2019-02-22T05:35:05.636Z,99.90
2019-02-22T05:37:35.202Z,99.90
2019-02-22T05:40:05.124Z,99.90
2019-02-22T05:42:34.605Z,99.90
2019-02-22T05:45:04.175Z,99.90
2019-02-22T05:47:33.714Z,99.90
2019-02-22T05:50:03.336Z,99.90
2019-02-22T05:52:32.896Z,99.90
2019-02-22T05:55:02.398Z,99.90
2019-02-22T05:57:31.887Z,99.90
2019-02-22T06:00:01.418Z,99.90
2019-02-22T06:02:33.716Z,99.90
2019-02-22T06:05:02.684Z,99.90
2019-02-22T06:07:32.221Z,99.90
2019-02-22T06:10:01.799Z,99.90
2019-02-22T06:12:34.551Z,99.90
2019-02-22T06:15:02.586Z,99.90
2019-02-22T06:17:32.147Z,99.90
2019-02-22T06:20:01.675Z,99.90
2019-02-22T06:22:31.273Z,99.90
2019-02-22T06:25:00.823Z,99.90
2019-02-22T06:27:30.419Z,99.90
2019-02-22T06:30:00.342Z,99.90
2019-02-22T06:32:29.940Z,99.90
2019-02-22T06:34:59.445Z,99.90
2019-02-22T06:37:28.946Z,99.90
2019-02-22T06:39:58.410Z,99.90
2019-02-22T06:42:28.100Z,99.90
2019-02-22T06:44:57.575Z,99.90
2019-02-22T06:47:27.216Z,99.90
2019-02-22T06:49:56.722Z,99.90
2019-02-22T06:52:26.586Z,99.90
2019-02-22T06:54:56.036Z,99.90
2019-02-22T06:57:25.512Z,99.90
2019-02-22T06:59:55.032Z,99.90
2019-02-22T07:02:30.552Z,99.90
2019-02-22T07:05:00.322Z,99.90
2019-02-22T07:07:30.051Z,99.90
2019-02-22T07:09:59.504Z,99.90
2019-02-22T07:12:35.462Z,99.90
2019-02-22T07:15:06.071Z,99.90
2019-02-22T07:17:35.896Z,99.90
2019-02-22T07:20:09.099Z,99.90
2019-02-22T07:22:38.833Z,99.90
2019-02-22T07:25:09.592Z,99.90
2019-02-22T07:27:39.118Z,99.90
2019-02-22T07:30:09.393Z,99.90
2019-02-22T07:32:39.398Z,99.90
2019-02-22T07:35:09.859Z,99.90
2019-02-22T07:37:39.632Z,99.90
2019-02-22T07:40:09.409Z,99.90
2019-02-22T07:42:38.897Z,99.90
2019-02-22T07:45:10.417Z,99.90
2019-02-22T07:47:39.915Z,99.90
2019-02-22T07:50:11.173Z,99.90
2019-02-22T07:52:40.743Z,99.90
2019-02-22T07:55:10.830Z,99.90
2019-02-22T07:57:40.447Z,99.90
2019-02-22T08:00:12.513Z,99.90
2019-02-22T08:02:42.140Z,99.90
2019-02-22T08:05:11.795Z,99.90
2019-02-22T08:07:41.274Z,99.90
2019-02-22T08:10:10.723Z,99.90
2019-02-22T08:12:40.362Z,99.90
2019-02-22T08:15:10.541Z,99.90
2019-02-22T08:17:40.175Z,99.90
2019-02-22T08:20:09.685Z,99.90
2019-02-22T08:22:39.384Z,99.90
2019-02-22T08:25:08.912Z,99.90
2019-02-22T08:27:40.275Z,99.90
2019-02-22T08:30:10.320Z,99.90
2019-02-22T08:32:40.175Z,99.90
2019-02-22T08:35:09.818Z,99.90
2019-02-22T08:37:39.414Z,99.90
2019-02-22T08:40:09.606Z,99.90
2019-02-22T08:42:39.099Z,99.90
2019-02-22T08:45:09.700Z,99.90
2019-02-22T08:47:39.461Z,99.90
2019-02-22T08:50:09.273Z,99.90
2019-02-22T08:52:38.842Z,99.90
2019-02-22T08:55:08.580Z,99.90
2019-02-22T08:57:38.194Z,99.90
2019-02-22T09:00:09.456Z,99.90
2019-02-22T09:02:39.092Z,99.90
2019-02-22T09:05:09.162Z,99.90
2019-02-22T09:07:38.789Z,99.90
2019-02-22T09:10:09.065Z,99.90
2019-02-22T09:12:38.652Z,99.90
2019-02-22T09:15:08.427Z,99.90
2019-02-22T09:17:38.036Z,99.90
2019-02-22T09:20:08.323Z,99.90
2019-02-22T09:22:37.835Z,99.90
2019-02-22T09:25:07.898Z,99.90
2019-02-22T09:27:37.566Z,99.90
2019-02-22T09:30:08.353Z,99.90
2019-02-22T09:32:37.882Z,99.90
2019-02-22T09:35:08.963Z,99.90
2019-02-22T09:37:38.610Z,99.90
2019-02-22T09:40:09.655Z,99.90
2019-02-22T09:42:39.294Z,99.90
2019-02-22T09:45:09.809Z,99.90
2019-02-22T09:47:39.507Z,99.90
2019-02-22T09:50:10.537Z,99.90
2019-02-22T09:52:43.021Z,99.90
2019-02-22T09:55:12.964Z,99.90
2019-02-22T09:57:42.652Z,99.90
2019-02-22T10:00:13.056Z,99.90
2019-02-22T10:02:44.728Z,99.90
2019-02-22T10:05:14.917Z,99.90
2019-02-22T10:07:44.403Z,99.90
2019-02-22T10:10:13.992Z,99.90
2019-02-22T10:12:43.608Z,99.90
2019-02-22T10:15:13.162Z,99.90
2019-02-22T10:17:42.604Z,99.90
2019-02-22T10:20:12.376Z,99.90
2019-02-22T10:22:42.224Z,99.90
2019-02-22T10:25:11.818Z,99.90
2019-02-22T10:27:41.343Z,99.90
2019-02-22T10:30:11.022Z,99.90
2019-02-22T10:32:40.584Z,99.90
2019-02-22T10:35:10.362Z,99.90
2019-02-22T10:37:39.871Z,99.90
2019-02-22T10:40:09.453Z,99.90
2019-02-22T10:42:39.350Z,99.90
2019-02-22T10:45:09.132Z,99.90
2019-02-22T10:47:38.785Z,99.90
2019-02-22T10:50:08.679Z,99.90
2019-02-22T10:52:38.230Z,99.50
2019-02-22T10:55:08.392Z,99.90
2019-02-22T10:57:37.971Z,99.90
2019-02-22T11:00:09.681Z,99.90
2019-02-22T11:02:39.187Z,99.90
2019-02-22T11:05:08.640Z,99.90
2019-02-22T11:07:38.232Z,99.90
2019-02-22T11:10:09.175Z,99.90
2019-02-22T11:12:38.761Z,99.30
2019-02-22T11:15:09.247Z,99.90
2019-02-22T11:17:38.828Z,99.90
2019-02-22T11:20:08.662Z,99.90
2019-02-22T11:22:38.199Z,99.90
2019-02-22T11:25:09.596Z,98.30
2019-02-22T11:27:39.544Z,98.70
2019-02-22T11:30:10.555Z,98.20
2019-02-22T11:32:40.131Z,98.80
2019-02-22T11:35:09.697Z,82.10
2019-02-22T11:37:39.289Z,88.10
2019-02-22T11:40:08.909Z,96.40
2019-02-22T11:42:38.462Z,91.50
2019-02-22T11:45:08.141Z,95.50
2019-02-22T11:47:37.761Z,76.80
2019-02-22T11:50:07.845Z,86.70
2019-02-22T11:52:37.399Z,95.30
2019-02-22T11:55:07.161Z,93.60
2019-02-22T11:57:36.790Z,92.70
2019-02-22T12:00:08.833Z,99.90
2019-02-22T12:02:38.442Z,91.40
2019-02-22T12:05:08.056Z,99.90
2019-02-22T12:07:37.645Z,94.10
2019-02-22T12:10:07.390Z,99.90
2019-02-22T12:12:36.963Z,91.90
2019-02-22T12:15:07.378Z,99.90
2019-02-22T12:17:36.908Z,98.70
2019-02-22T12:20:06.719Z,97.80
2019-02-22T12:22:36.328Z,96.80
2019-02-22T12:25:06.053Z,98.10
2019-02-22T12:27:35.836Z,99.90
2019-02-22T12:30:07.157Z,99.90
2019-02-22T12:32:39.370Z,99.90
2019-02-22T12:35:08.399Z,99.90
2019-02-22T12:37:37.925Z,99.90
2019-02-22T12:40:08.910Z,99.90
2019-02-22T12:42:38.456Z,98.70
2019-02-22T12:45:08.132Z,93.90
2019-02-22T12:47:37.843Z,92.30
2019-02-22T12:50:08.169Z,97.70
2019-02-22T12:52:37.637Z,99.90
2019-02-22T12:55:07.893Z,94.70
2019-02-22T12:57:37.627Z,95.30
2019-02-22T13:00:09.462Z,91.50
2019-02-22T13:02:39.119Z,90.80
2019-02-22T13:05:10.574Z,99.90
2019-02-22T13:07:40.215Z,99.90
2019-02-22T13:10:09.902Z,99.90
2019-02-22T13:12:39.426Z,99.90
2019-02-22T13:15:14.117Z,96.90
2019-02-22T13:17:41.779Z,98.80
2019-02-22T13:20:11.481Z,99.60
2019-02-22T13:22:41.022Z,98.90
2019-02-22T13:25:10.618Z,93.10
2019-02-22T13:27:40.218Z,93.20
2019-02-22T13:30:10.887Z,87.40
2019-02-22T13:32:40.388Z,83.00
2019-02-22T13:35:11.097Z,81.30
2019-02-22T13:37:40.885Z,90.60
2019-02-22T13:40:12.099Z,92.20
2019-02-22T13:42:41.592Z,93.20
2019-02-22T13:45:11.412Z,99.90
2019-02-22T13:47:40.934Z,93.10
2019-02-22T13:50:12.166Z,99.90
2019-02-22T13:52:41.870Z,99.90
2019-02-22T13:55:23.054Z,93.40
2019-02-22T13:57:52.560Z,89.00
2019-02-22T14:00:41.340Z,76.40
2019-02-22T14:03:10.895Z,81.10
2019-02-22T14:05:40.493Z,96.70
2019-02-22T14:08:09.945Z,94.20
2019-02-22T14:10:39.479Z,90.60
2019-02-22T14:13:08.969Z,92.10
2019-02-22T14:15:38.619Z,90.90
2019-02-22T14:18:08.075Z,85.20
2019-02-22T14:20:37.638Z,94.80
2019-02-22T14:23:07.121Z,85.80
2019-02-22T14:25:36.737Z,84.40
2019-02-22T14:28:06.329Z,90.60
2019-02-22T14:30:36.950Z,89.50
2019-02-22T14:33:06.601Z,92.90
2019-02-22T14:35:36.157Z,89.20
2019-02-22T14:38:05.849Z,80.10
2019-02-22T14:40:35.609Z,83.50
2019-02-22T14:43:15.791Z,90.50
2019-02-22T14:45:36.429Z,93.40
2019-02-22T14:48:06.160Z,93.80
2019-02-22T14:50:35.825Z,81.00
2019-02-22T14:53:05.265Z,81.90
2019-02-22T14:55:35.165Z,85.10
2019-02-22T14:58:04.681Z,84.10
2019-02-22T15:00:34.542Z,85.60
2019-02-22T15:03:04.174Z,87.50
2019-02-22T15:05:33.759Z,92.60
2019-02-22T15:08:03.456Z,85.80
2019-02-22T15:10:33.174Z,91.10
2019-02-22T15:13:02.758Z,94.00
2019-02-22T15:15:45.044Z,95.10
2019-02-22T15:18:15.358Z,85.90
2019-02-22T15:20:45.152Z,94.00
2019-02-22T15:23:14.828Z,97.30
2019-02-22T15:25:44.433Z,88.20
2019-02-22T15:28:14.032Z,88.20
2019-02-22T15:30:45.221Z,90.90
2019-02-22T15:33:14.806Z,91.40
2019-02-22T15:35:44.259Z,86.80
2019-02-22T15:38:13.722Z,93.30
2019-02-22T15:40:43.358Z,85.60
2019-02-22T15:43:12.929Z,95.30
2019-02-22T15:45:42.538Z,85.20
2019-02-22T15:48:14.515Z,92.10
2019-02-22T15:50:43.616Z,87.00
2019-02-22T15:53:13.081Z,89.30
2019-02-22T15:55:42.655Z,89.10
2019-02-22T15:58:12.252Z,85.20
2019-02-22T16:00:41.803Z,91.60
2019-02-22T16:03:11.391Z,88.10
2019-02-22T16:05:42.693Z,90.90
2019-02-22T16:08:12.225Z,86.70
2019-02-22T16:10:41.913Z,90.30
2019-02-22T16:13:11.511Z,95.10
2019-02-22T16:15:40.997Z,99.90
2019-02-22T16:18:10.556Z,95.00
2019-02-22T16:20:40.130Z,99.90
2019-02-22T16:23:09.708Z,99.90
2019-02-22T16:25:39.357Z,99.70
2019-02-22T16:28:09.018Z,93.60
2019-02-22T16:30:38.803Z,92.40
2019-02-22T16:33:08.347Z,97.00
2019-02-22T16:35:38.151Z,98.20
2019-02-22T16:38:07.638Z,99.10
2019-02-22T16:40:37.238Z,97.10
2019-02-22T16:43:06.725Z,99.90
2019-02-22T16:45:36.336Z,99.90
2019-02-22T16:48:06.020Z,99.90
2019-02-22T16:50:35.536Z,99.90
2019-02-22T16:53:05.117Z,97.80
2019-02-22T16:55:34.637Z,97.40
2019-02-22T16:58:04.170Z,94.60
2019-02-22T17:00:33.698Z,94.20
2019-02-22T17:03:03.228Z,99.90
2019-02-22T17:05:32.798Z,98.60
2019-02-22T17:08:02.359Z,99.90
2019-02-22T17:10:31.801Z,99.90
2019-02-22T17:13:01.332Z,99.90
2019-02-22T17:15:30.862Z,99.90
2019-02-22T17:18:01.400Z,99.90
2019-02-22T17:20:30.945Z,99.90
2019-02-22T17:23:00.490Z,99.90
2019-02-22T17:25:33.502Z,99.90
2019-02-22T17:28:03.000Z,99.90
2019-02-22T17:30:32.512Z,99.90
2019-02-22T17:33:02.072Z,99.90
2019-02-22T17:35:31.730Z,99.90
2019-02-22T17:38:01.197Z,99.90
2019-02-22T17:40:30.788Z,99.90
2019-02-22T17:43:00.413Z,99.90
2019-02-22T17:45:30.164Z,99.90
2019-02-22T17:47:59.721Z,99.90
2019-02-22T17:50:29.293Z,99.90
2019-02-22T17:52:58.743Z,99.90
2019-02-22T17:55:28.387Z,99.90
2019-02-22T17:57:57.879Z,99.90
2019-02-22T18:00:27.445Z,99.90
2019-02-22T18:02:56.943Z,99.90
2019-02-22T18:05:26.461Z,99.90
2019-02-22T18:07:56.021Z,99.90
2019-02-22T18:10:28.604Z,99.90
2019-02-22T18:12:58.070Z,99.90
2019-02-22T18:15:27.643Z,99.90
2019-02-22T18:17:57.172Z,99.90
2019-02-22T18:20:26.726Z,99.90
2019-02-22T18:22:56.475Z,99.90
2019-02-22T18:25:27.865Z,99.90
2019-02-22T18:27:57.147Z,99.90
2019-02-22T18:30:26.760Z,99.90
2019-02-22T18:32:56.355Z,99.90
2019-02-22T18:35:26.005Z,99.90
2019-02-22T18:37:55.498Z,99.90
2019-02-22T18:40:25.099Z,99.90
2019-02-22T18:42:54.684Z,99.90
2019-02-22T18:45:24.288Z,99.90
2019-02-22T18:47:53.841Z,99.90
2019-02-22T18:50:23.465Z,99.90
2019-02-22T18:52:53.094Z,99.90
2019-02-22T18:55:22.672Z,99.90
2019-02-22T18:57:52.174Z,99.90
2019-02-22T19:00:21.706Z,99.90
2019-02-22T19:02:51.200Z,99.90
2019-02-22T19:05:21.006Z,99.90
2019-02-22T19:07:50.613Z,99.90
2019-02-22T19:10:20.427Z,99.90
2019-02-22T19:12:49.984Z,99.90
2019-02-22T19:15:19.494Z,99.90
2019-02-22T19:17:49.207Z,99.90
2019-02-22T19:20:18.674Z,99.90
2019-02-22T19:22:48.168Z,99.90
2019-02-22T19:25:17.595Z,99.90
2019-02-22T19:27:47.350Z,99.90
2019-02-22T19:30:17.375Z,99.90
2019-02-22T19:32:48.145Z,99.90
2019-02-22T19:35:17.690Z,99.90
2019-02-22T19:37:47.297Z,99.90
2019-02-22T19:40:18.635Z,99.90
2019-02-22T19:42:48.128Z,99.90
2019-02-22T19:45:17.698Z,99.90
2019-02-22T19:47:47.247Z,99.90
2019-02-22T19:50:16.742Z,99.90
2019-02-22T19:52:46.482Z,99.90
2019-02-22T19:55:16.086Z,99.90
2019-02-22T19:57:45.636Z,99.90
2019-02-22T20:00:16.301Z,99.90
2019-02-22T20:02:46.170Z,99.90
2019-02-22T20:05:15.661Z,99.90
2019-02-22T20:07:45.517Z,99.90
2019-02-22T20:10:18.284Z,99.90
2019-02-22T20:12:47.038Z,99.90
2019-02-22T20:15:16.799Z,99.90
2019-02-22T20:17:53.678Z,99.90
2019-02-22T20:20:17.584Z,99.90
2019-02-22T20:22:47.205Z,99.90
2019-02-22T20:25:16.729Z,99.90
2019-02-22T20:27:46.227Z,99.90
2019-02-22T20:30:16.008Z,99.90
2019-02-22T20:32:45.536Z,99.90
2019-02-22T20:35:16.978Z,99.90
2019-02-22T20:37:52.706Z,99.90
2019-02-22T20:40:17.682Z,99.90
2019-02-22T20:42:47.168Z,99.90
2019-02-22T20:45:16.713Z,99.90
2019-02-22T20:47:46.315Z,97.80
2019-02-22T20:50:15.928Z,99.70
2019-02-22T20:52:45.637Z,97.60
2019-02-22T20:55:15.088Z,96.90
2019-02-22T20:57:44.544Z,99.70
2019-02-22T21:00:16.270Z,94.70
2019-02-22T21:02:45.760Z,94.20
2019-02-22T21:05:15.211Z,94.90
2019-02-22T21:07:44.712Z,96.30
2019-02-22T21:10:15.498Z,98.10
2019-02-22T21:12:45.142Z,95.90
2019-02-22T21:15:14.657Z,94.30
2019-02-22T21:17:44.129Z,95.20
2019-02-22T21:20:13.907Z,94.60
2019-02-22T21:22:43.490Z,95.70
2019-02-22T21:25:13.154Z,96.20
2019-02-22T21:27:42.718Z,96.20
2019-02-22T21:30:13.955Z,99.90
2019-02-22T21:32:43.697Z,98.80
2019-02-22T21:35:13.152Z,98.10
2019-02-22T21:37:43.089Z,98.90
2019-02-22T21:40:12.669Z,96.50
2019-02-22T21:42:42.456Z,97.20
2019-02-22T21:45:12.181Z,98.10
2019-02-22T21:47:53.757Z,96.30
2019-02-22T21:50:13.379Z,97.40
2019-02-22T21:52:42.911Z,97.00
2019-02-22T21:55:12.403Z,97.50
2019-02-22T21:57:42.220Z,99.00
2019-02-22T22:00:14.859Z,96.70
2019-02-22T22:02:44.502Z,97.30
2019-02-22T22:05:14.162Z,98.20
2019-02-22T22:07:43.798Z,97.60
2019-02-22T22:10:12.653Z,97.40
2019-02-22T22:12:42.287Z,99.90
2019-02-22T22:15:11.943Z,99.90
2019-02-22T22:17:41.479Z,98.80
2019-02-22T22:20:11.370Z,98.10
2019-02-22T22:22:41.172Z,98.70
2019-02-22T22:25:11.077Z,97.50
2019-02-22T22:27:40.684Z,98.50
2019-02-22T22:30:11.320Z,99.90
2019-02-22T22:32:40.881Z,99.90
2019-02-22T22:35:11.008Z,97.50
2019-02-22T22:37:40.574Z,99.60
2019-02-22T22:40:10.536Z,99.90
2019-02-22T22:42:40.159Z,99.90
2019-02-22T22:45:10.522Z,99.30
2019-02-22T22:47:40.057Z,99.70
2019-02-22T22:50:11.110Z,99.90
2019-02-22T22:52:40.542Z,99.90
2019-02-22T22:55:10.424Z,99.70
2019-02-22T22:57:39.886Z,99.90
2019-02-22T23:00:23.363Z,99.90
2019-02-22T23:02:52.843Z,99.80
2019-02-22T23:05:22.367Z,99.90
2019-02-22T23:07:52.693Z,99.90
2019-02-22T23:10:22.239Z,99.90
2019-02-22T23:12:51.747Z,99.90
2019-02-22T23:15:21.222Z,98.90
2019-02-22T23:17:50.858Z,99.90
2019-02-22T23:20:20.337Z,99.90
2019-02-22T23:22:49.847Z,99.90
2019-02-22T23:25:19.586Z,99.90
2019-02-22T23:27:49.185Z,99.90
2019-02-22T23:30:18.643Z,99.90
2019-02-22T23:32:48.117Z,99.90
2019-02-22T23:35:17.605Z,99.90
2019-02-22T23:38:06.378Z,99.90
2019-02-22T23:40:35.885Z,99.90
2019-02-22T23:43:05.479Z,99.90
2019-02-22T23:45:35.382Z,99.90
2019-02-22T23:48:04.962Z,99.90
2019-02-22T23:50:34.529Z,99.90
2019-02-22T23:53:04.527Z,99.90
2019-02-22T23:55:33.994Z,99.90
2019-02-22T23:58:03.528Z,99.90
